sensor_id;sensor_type;location;lat;lon;timestamp;pressure;altitude;pressure_sealevel;temperature;humidity
55990;BME280;41875;55.806;38.082;2023-05-29T00:00:00;99582.31;;;11.99;55.37
55990;BME280;41875;55.806;38.082;2023-05-29T00:02:36;99590.06;;;12.25;54.73
55990;BME280;41875;55.806;38.082;2023-05-29T00:05:05;99599.72;;;12.34;54.44
55990;BME280;41875;55.806;38.082;2023-05-29T00:07:34;99596.25;;;12.01;55.11
55990;BME280;41875;55.806;38.082;2023-05-29T00:10:03;99582.78;;;12.19;54.85
55990;BME280;41875;55.806;38.082;2023-05-29T00:12:34;99589.59;;;11.97;55.46
55990;BME280;41875;55.806;38.082;2023-05-29T00:15:04;99593.56;;;12.34;54.47
55990;BME280;41875;55.806;38.082;2023-05-29T00:17:33;99597.09;;;12.10;55.06
55990;BME280;41875;55.806;38.082;2023-05-29T00:20:02;99599.56;;;12.28;54.55
55990;BME280;41875;55.806;38.082;2023-05-29T00:22:36;99608.19;;;12.22;54.94
55990;BME280;41875;55.806;38.082;2023-05-29T00:25:05;99612.34;;;12.08;55.53
55990;BME280;41875;55.806;38.082;2023-05-29T00:27:36;99604.19;;;12.26;55.00
55990;BME280;41875;55.806;38.082;2023-05-29T00:30:05;99609.53;;;12.17;55.14
55990;BME280;41875;55.806;38.082;2023-05-29T00:32:35;99609.84;;;12.31;54.83
55990;BME280;41875;55.806;38.082;2023-05-29T00:35:04;99609.00;;;12.30;54.85
55990;BME280;41875;55.806;38.082;2023-05-29T00:37:33;99607.50;;;12.19;54.98
55990;BME280;41875;55.806;38.082;2023-05-29T00:40:02;99612.59;;;12.62;54.23
55990;BME280;41875;55.806;38.082;2023-05-29T00:42:31;99606.25;;;12.80;52.94
55990;BME280;41875;55.806;38.082;2023-05-29T00:45:01;99602.84;;;12.38;54.44
55990;BME280;41875;55.806;38.082;2023-05-29T00:47:31;99620.09;;;12.50;54.26
55990;BME280;41875;55.806;38.082;2023-05-29T00:50:01;99611.97;;;12.44;54.52
55990;BME280;41875;55.806;38.082;2023-05-29T00:52:31;99610.31;;;12.51;54.38
55990;BME280;41875;55.806;38.082;2023-05-29T00:55:00;99617.28;;;12.44;54.67
55990;BME280;41875;55.806;38.082;2023-05-29T00:57:32;99611.66;;;12.39;54.73
55990;BME280;41875;55.806;38.082;2023-05-29T01:00:05;99620.97;;;12.18;55.39
55990;BME280;41875;55.806;38.082;2023-05-29T01:02:36;99617.31;;;12.11;55.27
55990;BME280;41875;55.806;38.082;2023-05-29T01:05:05;99617.81;;;12.31;55.01
55990;BME280;41875;55.806;38.082;2023-05-29T01:07:37;99619.63;;;12.39;54.40
55990;BME280;41875;55.806;38.082;2023-05-29T01:10:07;99628.53;;;12.62;54.23
55990;BME280;41875;55.806;38.082;2023-05-29T01:12:40;99623.00;;;13.29;52.59
55990;BME280;41875;55.806;38.082;2023-05-29T01:15:20;99623.00;;;14.30;49.67
55990;BME280;41875;55.806;38.082;2023-05-29T01:18:21;99623.81;;;14.69;48.83
55990;BME280;41875;55.806;38.082;2023-05-29T01:20:57;99626.38;;;14.92;47.95
55990;BME280;41875;55.806;38.082;2023-05-29T01:23:59;99623.25;;;15.77;46.13
55990;BME280;41875;55.806;38.082;2023-05-29T01:30:33;99628.66;;;16.27;44.28
55990;BME280;41875;55.806;38.082;2023-05-29T01:33:03;99620.44;;;15.63;45.16
55990;BME280;41875;55.806;38.082;2023-05-29T01:35:32;99620.13;;;15.88;44.65
55990;BME280;41875;55.806;38.082;2023-05-29T01:38:01;99626.88;;;16.63;43.26
55990;BME280;41875;55.806;38.082;2023-05-29T01:40:29;99627.19;;;17.23;41.90
55990;BME280;41875;55.806;38.082;2023-05-29T01:42:58;99638.16;;;18.04;40.99
55990;BME280;41875;55.806;38.082;2023-05-29T01:45:27;99636.47;;;17.96;40.67
55990;BME280;41875;55.806;38.082;2023-05-29T01:47:57;99628.63;;;18.68;39.05
55990;BME280;41875;55.806;38.082;2023-05-29T01:50:27;99641.16;;;17.74;39.62
55990;BME280;41875;55.806;38.082;2023-05-29T01:52:57;99645.25;;;17.63;40.70
55990;BME280;41875;55.806;38.082;2023-05-29T01:55:25;99638.50;;;17.87;40.22
55990;BME280;41875;55.806;38.082;2023-05-29T01:57:55;99635.66;;;18.02;39.25
55990;BME280;41875;55.806;38.082;2023-05-29T02:00:24;99638.75;;;17.99;39.08
55990;BME280;41875;55.806;38.082;2023-05-29T02:02:53;99640.00;;;18.23;39.79
55990;BME280;41875;55.806;38.082;2023-05-29T02:05:23;99644.31;;;18.58;38.75
55990;BME280;41875;55.806;38.082;2023-05-29T02:07:52;99641.56;;;18.98;37.53
55990;BME280;41875;55.806;38.082;2023-05-29T02:10:21;99643.69;;;19.42;38.08
55990;BME280;41875;55.806;38.082;2023-05-29T02:12:49;99649.63;;;18.85;37.68
55990;BME280;41875;55.806;38.082;2023-05-29T02:15:18;99651.72;;;19.87;36.40
55990;BME280;41875;55.806;38.082;2023-05-29T02:17:48;99653.97;;;19.90;36.06
55990;BME280;41875;55.806;38.082;2023-05-29T02:20:17;99651.59;;;19.69;36.70
55990;BME280;41875;55.806;38.082;2023-05-29T02:22:47;99650.91;;;19.87;36.12
55990;BME280;41875;55.806;38.082;2023-05-29T02:25:16;99660.47;;;20.59;34.71
55990;BME280;41875;55.806;38.082;2023-05-29T02:27:45;99650.59;;;20.52;35.07
55990;BME280;41875;55.806;38.082;2023-05-29T02:30:14;99657.34;;;21.06;34.13
55990;BME280;41875;55.806;38.082;2023-05-29T02:32:42;99655.59;;;20.49;35.16
55990;BME280;41875;55.806;38.082;2023-05-29T02:35:11;99653.59;;;20.88;35.35
55990;BME280;41875;55.806;38.082;2023-05-29T02:37:42;99655.91;;;20.59;35.17
55990;BME280;41875;55.806;38.082;2023-05-29T02:40:17;99660.50;;;20.33;35.73
55990;BME280;41875;55.806;38.082;2023-05-29T02:42:49;99654.25;;;20.83;34.49
55990;BME280;41875;55.806;38.082;2023-05-29T02:45:18;99655.16;;;21.14;33.57
55990;BME280;41875;55.806;38.082;2023-05-29T02:47:48;99658.25;;;20.30;34.98
55990;BME280;41875;55.806;38.082;2023-05-29T02:50:17;99656.03;;;20.20;34.48
55990;BME280;41875;55.806;38.082;2023-05-29T02:52:45;99655.56;;;20.30;35.10
55990;BME280;41875;55.806;38.082;2023-05-29T02:55:18;99655.63;;;19.53;36.07
55990;BME280;41875;55.806;38.082;2023-05-29T02:57:46;99655.66;;;19.46;35.94
55990;BME280;41875;55.806;38.082;2023-05-29T03:00:20;99664.06;;;18.91;36.39
55990;BME280;41875;55.806;38.082;2023-05-29T03:02:48;99663.91;;;18.65;37.35
55990;BME280;41875;55.806;38.082;2023-05-29T03:05:17;99667.00;;;18.96;37.59
55990;BME280;41875;55.806;38.082;2023-05-29T03:07:46;99670.31;;;18.57;38.22
55990;BME280;41875;55.806;38.082;2023-05-29T03:10:15;99672.25;;;19.29;36.20
55990;BME280;41875;55.806;38.082;2023-05-29T03:12:45;99675.59;;;19.18;35.70
55990;BME280;41875;55.806;38.082;2023-05-29T03:15:15;99664.56;;;19.40;36.15
55990;BME280;41875;55.806;38.082;2023-05-29T03:17:43;99676.69;;;20.96;33.36
55990;BME280;41875;55.806;38.082;2023-05-29T03:20:15;99683.44;;;20.86;33.09
55990;BME280;41875;55.806;38.082;2023-05-29T03:22:44;99676.34;;;20.67;33.86
55990;BME280;41875;55.806;38.082;2023-05-29T03:25:13;99679.47;;;21.26;33.05
55990;BME280;41875;55.806;38.082;2023-05-29T03:27:45;99688.69;;;20.24;34.89
55990;BME280;41875;55.806;38.082;2023-05-29T03:30:17;99690.41;;;21.81;32.10
55990;BME280;41875;55.806;38.082;2023-05-29T03:32:51;99693.50;;;21.84;31.96
55990;BME280;41875;55.806;38.082;2023-05-29T03:35:30;99704.38;;;21.03;32.55
55990;BME280;41875;55.806;38.082;2023-05-29T03:37:59;99703.53;;;20.84;33.89
55990;BME280;41875;55.806;38.082;2023-05-29T03:40:28;99710.91;;;19.74;35.65
55990;BME280;41875;55.806;38.082;2023-05-29T03:42:58;99698.59;;;19.98;35.06
55990;BME280;41875;55.806;38.082;2023-05-29T03:45:27;99697.91;;;17.97;37.84
55990;BME280;41875;55.806;38.082;2023-05-29T03:47:55;99702.50;;;18.24;38.18
55990;BME280;41875;55.806;38.082;2023-05-29T03:50:24;99702.25;;;17.43;39.39
55990;BME280;41875;55.806;38.082;2023-05-29T03:52:53;99692.56;;;18.11;38.13
55990;BME280;41875;55.806;38.082;2023-05-29T03:55:22;99705.66;;;17.79;38.70
55990;BME280;41875;55.806;38.082;2023-05-29T03:57:52;99707.88;;;16.85;39.57
55990;BME280;41875;55.806;38.082;2023-05-29T04:00:22;99710.50;;;17.48;39.16
55990;BME280;41875;55.806;38.082;2023-05-29T04:02:52;99715.59;;;17.36;39.10
55990;BME280;41875;55.806;38.082;2023-05-29T04:05:21;99713.56;;;17.39;39.23
55990;BME280;41875;55.806;38.082;2023-05-29T04:07:49;99716.03;;;17.40;39.70
55990;BME280;41875;55.806;38.082;2023-05-29T04:10:30;99719.38;;;17.07;39.64
55990;BME280;41875;55.806;38.082;2023-05-29T04:13:00;99729.13;;;17.70;38.41
55990;BME280;41875;55.806;38.082;2023-05-29T04:15:31;99724.63;;;17.71;39.59
55990;BME280;41875;55.806;38.082;2023-05-29T04:18:00;99723.91;;;18.04;37.72
55990;BME280;41875;55.806;38.082;2023-05-29T04:20:29;99730.16;;;18.58;37.86
55990;BME280;41875;55.806;38.082;2023-05-29T04:22:58;99727.47;;;19.05;35.72
55990;BME280;41875;55.806;38.082;2023-05-29T04:25:28;99725.56;;;18.05;38.72
55990;BME280;41875;55.806;38.082;2023-05-29T04:27:56;99729.53;;;18.63;36.73
55990;BME280;41875;55.806;38.082;2023-05-29T04:30:30;99731.81;;;18.59;36.90
55990;BME280;41875;55.806;38.082;2023-05-29T04:33:02;99738.63;;;19.02;35.78
55990;BME280;41875;55.806;38.082;2023-05-29T04:35:33;99727.91;;;18.62;36.45
55990;BME280;41875;55.806;38.082;2023-05-29T04:38:06;99733.25;;;18.68;36.76
55990;BME280;41875;55.806;38.082;2023-05-29T04:40:36;99728.50;;;18.30;36.87
55990;BME280;41875;55.806;38.082;2023-05-29T04:43:04;99738.59;;;19.09;34.93
55990;BME280;41875;55.806;38.082;2023-05-29T04:45:52;99734.19;;;18.00;36.55
55990;BME280;41875;55.806;38.082;2023-05-29T04:48:25;99745.84;;;19.08;35.71
55990;BME280;41875;55.806;38.082;2023-05-29T04:50:54;99738.81;;;18.94;36.42
55990;BME280;41875;55.806;38.082;2023-05-29T04:53:24;99745.63;;;18.89;35.61
55990;BME280;41875;55.806;38.082;2023-05-29T04:55:56;99745.44;;;18.57;35.78
55990;BME280;41875;55.806;38.082;2023-05-29T04:58:25;99743.34;;;18.80;36.01
55990;BME280;41875;55.806;38.082;2023-05-29T05:00:56;99748.72;;;18.73;35.87
55990;BME280;41875;55.806;38.082;2023-05-29T05:03:30;99748.53;;;19.08;35.87
55990;BME280;41875;55.806;38.082;2023-05-29T05:06:02;99747.13;;;19.64;33.63
55990;BME280;41875;55.806;38.082;2023-05-29T05:08:34;99740.53;;;20.06;33.42
55990;BME280;41875;55.806;38.082;2023-05-29T05:11:04;99745.94;;;19.47;34.54
55990;BME280;41875;55.806;38.082;2023-05-29T05:13:34;99758.78;;;19.97;32.21
55990;BME280;41875;55.806;38.082;2023-05-29T05:16:05;99758.41;;;19.28;34.03
55990;BME280;41875;55.806;38.082;2023-05-29T05:18:35;99753.41;;;19.45;34.11
55990;BME280;41875;55.806;38.082;2023-05-29T05:21:06;99756.31;;;19.30;34.77
55990;BME280;41875;55.806;38.082;2023-05-29T05:23:36;99751.16;;;19.28;34.43
55990;BME280;41875;55.806;38.082;2023-05-29T05:26:10;99755.66;;;19.55;33.89
55990;BME280;41875;55.806;38.082;2023-05-29T05:28:39;99755.03;;;20.37;33.97
55990;BME280;41875;55.806;38.082;2023-05-29T05:31:09;99746.41;;;21.04;27.63
55990;BME280;41875;55.806;38.082;2023-05-29T05:33:38;99752.44;;;20.81;28.29
55990;BME280;41875;55.806;38.082;2023-05-29T05:36:09;99747.00;;;20.30;29.33
55990;BME280;41875;55.806;38.082;2023-05-29T05:38:40;99751.84;;;20.79;27.89
55990;BME280;41875;55.806;38.082;2023-05-29T05:41:08;99744.03;;;20.96;28.58
55990;BME280;41875;55.806;38.082;2023-05-29T05:43:39;99746.00;;;20.56;28.23
55990;BME280;41875;55.806;38.082;2023-05-29T05:46:21;99757.25;;;20.79;27.05
55990;BME280;41875;55.806;38.082;2023-05-29T05:48:54;99756.25;;;21.17;27.63
55990;BME280;41875;55.806;38.082;2023-05-29T05:51:24;99750.94;;;21.10;27.21
55990;BME280;41875;55.806;38.082;2023-05-29T05:53:53;99757.38;;;21.28;24.98
55990;BME280;41875;55.806;38.082;2023-05-29T05:56:25;99752.72;;;20.98;25.07
55990;BME280;41875;55.806;38.082;2023-05-29T05:58:54;99753.97;;;20.70;25.28
55990;BME280;41875;55.806;38.082;2023-05-29T06:01:25;99759.41;;;20.89;24.60
55990;BME280;41875;55.806;38.082;2023-05-29T06:03:54;99753.53;;;20.48;26.01
55990;BME280;41875;55.806;38.082;2023-05-29T06:06:23;99756.72;;;20.89;25.21
55990;BME280;41875;55.806;38.082;2023-05-29T06:08:51;99762.81;;;20.13;26.35
55990;BME280;41875;55.806;38.082;2023-05-29T06:11:21;99767.41;;;20.13;26.56
55990;BME280;41875;55.806;38.082;2023-05-29T06:13:50;99761.75;;;20.53;24.95
55990;BME280;41875;55.806;38.082;2023-05-29T06:16:24;99761.19;;;20.76;25.67
55990;BME280;41875;55.806;38.082;2023-05-29T06:18:56;99766.69;;;20.24;25.16
55990;BME280;41875;55.806;38.082;2023-05-29T06:21:26;99776.66;;;20.23;24.87
55990;BME280;41875;55.806;38.082;2023-05-29T06:23:56;99762.78;;;19.74;26.21
55990;BME280;41875;55.806;38.082;2023-05-29T06:26:26;99765.09;;;20.48;25.44
55990;BME280;41875;55.806;38.082;2023-05-29T06:28:56;99766.66;;;20.88;25.09
55990;BME280;41875;55.806;38.082;2023-05-29T06:31:26;99774.69;;;19.99;27.31
55990;BME280;41875;55.806;38.082;2023-05-29T06:33:56;99778.88;;;20.33;23.82
55990;BME280;41875;55.806;38.082;2023-05-29T06:36:24;99775.44;;;20.51;23.91
55990;BME280;41875;55.806;38.082;2023-05-29T06:38:53;99772.28;;;21.30;22.84
55990;BME280;41875;55.806;38.082;2023-05-29T06:41:21;99780.41;;;20.80;23.76
55990;BME280;41875;55.806;38.082;2023-05-29T06:43:50;99783.00;;;21.12;23.70
55990;BME280;41875;55.806;38.082;2023-05-29T06:46:21;99791.41;;;20.78;23.69
55990;BME280;41875;55.806;38.082;2023-05-29T06:48:52;99789.06;;;20.24;24.77
55990;BME280;41875;55.806;38.082;2023-05-29T06:51:22;99792.44;;;20.45;24.86
55990;BME280;41875;55.806;38.082;2023-05-29T06:53:54;99794.69;;;21.06;24.14
55990;BME280;41875;55.806;38.082;2023-05-29T06:56:26;99787.44;;;20.81;24.61
55990;BME280;41875;55.806;38.082;2023-05-29T06:58:57;99774.91;;;20.68;24.07
55990;BME280;41875;55.806;38.082;2023-05-29T07:01:59;99782.88;;;20.81;23.90
55990;BME280;41875;55.806;38.082;2023-05-29T07:04:29;99786.38;;;20.82;24.00
55990;BME280;41875;55.806;38.082;2023-05-29T07:06:58;99786.75;;;21.11;23.65
55990;BME280;41875;55.806;38.082;2023-05-29T07:09:26;99793.28;;;21.66;24.29
55990;BME280;41875;55.806;38.082;2023-05-29T07:11:55;99791.06;;;21.37;23.31
55990;BME280;41875;55.806;38.082;2023-05-29T07:14:24;99779.53;;;21.48;23.23
55990;BME280;41875;55.806;38.082;2023-05-29T07:16:52;99773.06;;;22.05;23.89
55990;BME280;41875;55.806;38.082;2023-05-29T07:19:22;99780.00;;;21.01;24.83
55990;BME280;41875;55.806;38.082;2023-05-29T07:21:52;99779.44;;;21.62;24.66
55990;BME280;41875;55.806;38.082;2023-05-29T07:24:22;99785.75;;;21.49;24.28
55990;BME280;41875;55.806;38.082;2023-05-29T07:26:51;99784.56;;;21.82;23.77
55990;BME280;41875;55.806;38.082;2023-05-29T07:29:20;99778.84;;;21.16;24.64
55990;BME280;41875;55.806;38.082;2023-05-29T07:31:50;99771.63;;;20.91;24.29
55990;BME280;41875;55.806;38.082;2023-05-29T07:34:21;99778.84;;;20.91;25.02
55990;BME280;41875;55.806;38.082;2023-05-29T07:36:58;99780.06;;;21.95;24.35
55990;BME280;41875;55.806;38.082;2023-05-29T07:39:29;99772.34;;;21.24;23.75
55990;BME280;41875;55.806;38.082;2023-05-29T07:42:00;99779.31;;;19.85;25.83
55990;BME280;41875;55.806;38.082;2023-05-29T07:44:29;99777.69;;;20.80;25.22
55990;BME280;41875;55.806;38.082;2023-05-29T07:46:58;99778.84;;;21.16;25.64
55990;BME280;41875;55.806;38.082;2023-05-29T07:49:35;99787.16;;;21.52;24.54
55990;BME280;41875;55.806;38.082;2023-05-29T07:52:07;99775.16;;;22.34;21.65
55990;BME280;41875;55.806;38.082;2023-05-29T07:54:36;99783.63;;;21.14;23.51
55990;BME280;41875;55.806;38.082;2023-05-29T07:57:08;99778.94;;;21.46;24.19
55990;BME280;41875;55.806;38.082;2023-05-29T07:59:40;99781.63;;;21.28;24.27
55990;BME280;41875;55.806;38.082;2023-05-29T08:02:10;99786.69;;;21.61;23.57
55990;BME280;41875;55.806;38.082;2023-05-29T08:04:53;99784.66;;;20.94;23.17
55990;BME280;41875;55.806;38.082;2023-05-29T08:07:24;99778.63;;;21.36;23.24
55990;BME280;41875;55.806;38.082;2023-05-29T08:09:54;99775.09;;;21.17;23.29
55990;BME280;41875;55.806;38.082;2023-05-29T08:12:22;99783.13;;;21.42;22.77
55990;BME280;41875;55.806;38.082;2023-05-29T08:14:54;99776.53;;;21.57;23.20
55990;BME280;41875;55.806;38.082;2023-05-29T08:17:22;99777.50;;;22.30;23.11
55990;BME280;41875;55.806;38.082;2023-05-29T08:19:51;99790.09;;;21.50;23.16
55990;BME280;41875;55.806;38.082;2023-05-29T08:22:19;99777.22;;;21.34;23.68
55990;BME280;41875;55.806;38.082;2023-05-29T08:24:50;99762.38;;;21.43;24.06
55990;BME280;41875;55.806;38.082;2023-05-29T08:27:19;99780.03;;;20.44;23.61
55990;BME280;41875;55.806;38.082;2023-05-29T08:29:47;99782.28;;;21.05;23.89
55990;BME280;41875;55.806;38.082;2023-05-29T08:32:17;99783.59;;;22.26;23.29
55990;BME280;41875;55.806;38.082;2023-05-29T08:34:46;99761.06;;;23.22;22.18
55990;BME280;41875;55.806;38.082;2023-05-29T08:37:15;99777.47;;;22.73;21.25
55990;BME280;41875;55.806;38.082;2023-05-29T08:39:44;99775.94;;;21.92;22.21
55990;BME280;41875;55.806;38.082;2023-05-29T08:42:20;99773.47;;;22.21;22.67
55990;BME280;41875;55.806;38.082;2023-05-29T08:44:51;99780.00;;;21.83;22.47
55990;BME280;41875;55.806;38.082;2023-05-29T08:47:26;99775.72;;;21.19;22.02
55990;BME280;41875;55.806;38.082;2023-05-29T08:49:56;99771.63;;;21.72;22.16
55990;BME280;41875;55.806;38.082;2023-05-29T08:52:27;99768.31;;;20.89;22.86
55990;BME280;41875;55.806;38.082;2023-05-29T08:54:58;99760.75;;;21.23;22.72
55990;BME280;41875;55.806;38.082;2023-05-29T08:57:32;99763.47;;;21.60;23.08
55990;BME280;41875;55.806;38.082;2023-05-29T09:00:01;99770.84;;;21.84;22.61
55990;BME280;41875;55.806;38.082;2023-05-29T09:02:39;99768.53;;;21.50;23.30
55990;BME280;41875;55.806;38.082;2023-05-29T09:05:08;99764.38;;;22.03;23.56
55990;BME280;41875;55.806;38.082;2023-05-29T09:07:37;99758.78;;;22.17;23.54
55990;BME280;41875;55.806;38.082;2023-05-29T09:10:07;99752.00;;;22.14;22.31
55990;BME280;41875;55.806;38.082;2023-05-29T09:12:38;99752.81;;;21.84;23.90
55990;BME280;41875;55.806;38.082;2023-05-29T09:15:20;99758.34;;;21.71;24.13
55990;BME280;41875;55.806;38.082;2023-05-29T09:17:52;99744.63;;;22.76;23.06
55990;BME280;41875;55.806;38.082;2023-05-29T09:20:21;99749.53;;;22.67;22.18
55990;BME280;41875;55.806;38.082;2023-05-29T09:22:57;99739.31;;;22.57;22.58
55990;BME280;41875;55.806;38.082;2023-05-29T09:25:27;99744.50;;;23.30;22.90
55990;BME280;41875;55.806;38.082;2023-05-29T09:27:59;99745.44;;;23.24;20.89
55990;BME280;41875;55.806;38.082;2023-05-29T09:34:05;99735.16;;;22.31;23.37
55990;BME280;41875;55.806;38.082;2023-05-29T09:36:34;99728.41;;;23.23;21.52
55990;BME280;41875;55.806;38.082;2023-05-29T09:39:03;99726.19;;;23.32;22.67
55990;BME280;41875;55.806;38.082;2023-05-29T09:41:44;99726.22;;;21.88;24.29
55990;BME280;41875;55.806;38.082;2023-05-29T09:44:14;99732.53;;;22.66;23.87
55990;BME280;41875;55.806;38.082;2023-05-29T09:46:43;99727.03;;;23.21;22.91
55990;BME280;41875;55.806;38.082;2023-05-29T09:49:13;99721.81;;;23.19;22.60
55990;BME280;41875;55.806;38.082;2023-05-29T09:51:45;99726.50;;;23.36;22.79
55990;BME280;41875;55.806;38.082;2023-05-29T09:54:16;99717.41;;;23.54;21.79
55990;BME280;41875;55.806;38.082;2023-05-29T09:56:45;99718.63;;;23.75;21.49
55990;BME280;41875;55.806;38.082;2023-05-29T09:59:17;99718.22;;;22.78;22.60
55990;BME280;41875;55.806;38.082;2023-05-29T10:01:48;99718.31;;;22.59;21.10
55990;BME280;41875;55.806;38.082;2023-05-29T10:04:18;99716.19;;;20.83;22.83
55990;BME280;41875;55.806;38.082;2023-05-29T10:06:48;99714.16;;;21.72;22.61
55990;BME280;41875;55.806;38.082;2023-05-29T10:09:19;99718.81;;;22.26;23.29
55990;BME280;41875;55.806;38.082;2023-05-29T10:11:49;99714.75;;;23.18;21.46
55990;BME280;41875;55.806;38.082;2023-05-29T10:14:22;99716.78;;;22.99;22.40
55990;BME280;41875;55.806;38.082;2023-05-29T10:16:54;99712.19;;;23.11;21.99
55990;BME280;41875;55.806;38.082;2023-05-29T10:19:25;99713.69;;;23.19;22.30
55990;BME280;41875;55.806;38.082;2023-05-29T10:21:55;99709.22;;;23.78;22.19
55990;BME280;41875;55.806;38.082;2023-05-29T10:24:25;99707.41;;;23.66;22.10
55990;BME280;41875;55.806;38.082;2023-05-29T10:26:55;99715.97;;;22.98;22.67
55990;BME280;41875;55.806;38.082;2023-05-29T10:29:29;99711.97;;;23.66;22.26
55990;BME280;41875;55.806;38.082;2023-05-29T10:32:06;99711.38;;;23.93;21.30
55990;BME280;41875;55.806;38.082;2023-05-29T10:34:41;99702.69;;;22.49;22.11
55990;BME280;41875;55.806;38.082;2023-05-29T10:37:20;99700.19;;;23.31;22.22
55990;BME280;41875;55.806;38.082;2023-05-29T10:40:03;99687.34;;;23.38;21.99
55990;BME280;41875;55.806;38.082;2023-05-29T10:42:44;99701.63;;;22.86;21.71
55990;BME280;41875;55.806;38.082;2023-05-29T10:45:49;99707.72;;;23.70;21.63
55990;BME280;41875;55.806;38.082;2023-05-29T10:48:40;99690.38;;;22.89;20.79
55990;BME280;41875;55.806;38.082;2023-05-29T10:51:25;99693.91;;;22.00;21.71
55990;BME280;41875;55.806;38.082;2023-05-29T10:53:54;99685.16;;;22.40;21.36
55990;BME280;41875;55.806;38.082;2023-05-29T10:56:28;99686.44;;;23.90;20.13
55990;BME280;41875;55.806;38.082;2023-05-29T10:58:59;99690.09;;;23.14;21.66
55990;BME280;41875;55.806;38.082;2023-05-29T11:01:31;99702.41;;;23.75;21.15
55990;BME280;41875;55.806;38.082;2023-05-29T11:04:28;99704.41;;;23.39;20.40
55990;BME280;41875;55.806;38.082;2023-05-29T11:06:59;99699.56;;;23.82;19.78
55990;BME280;41875;55.806;38.082;2023-05-29T11:09:34;99692.19;;;24.23;19.85
55990;BME280;41875;55.806;38.082;2023-05-29T11:12:14;99688.97;;;23.51;21.00
55990;BME280;41875;55.806;38.082;2023-05-29T11:14:56;99678.81;;;23.18;22.17
55990;BME280;41875;55.806;38.082;2023-05-29T11:17:42;99690.47;;;23.59;21.71
55990;BME280;41875;55.806;38.082;2023-05-29T11:20:35;99675.47;;;22.98;22.79
55990;BME280;41875;55.806;38.082;2023-05-29T11:23:05;99678.38;;;22.85;22.82
55990;BME280;41875;55.806;38.082;2023-05-29T11:25:36;99679.00;;;23.81;21.68
55990;BME280;41875;55.806;38.082;2023-05-29T11:28:05;99670.53;;;24.23;21.54
55990;BME280;41875;55.806;38.082;2023-05-29T11:30:41;99675.63;;;24.19;21.14
55990;BME280;41875;55.806;38.082;2023-05-29T11:33:20;99672.75;;;23.80;21.16
55990;BME280;41875;55.806;38.082;2023-05-29T11:35:56;99667.31;;;24.09;22.27
55990;BME280;41875;55.806;38.082;2023-05-29T11:38:25;99667.88;;;23.36;21.99
55990;BME280;41875;55.806;38.082;2023-05-29T11:40:54;99669.28;;;23.39;22.56
55990;BME280;41875;55.806;38.082;2023-05-29T11:43:24;99661.00;;;24.03;22.16
55990;BME280;41875;55.806;38.082;2023-05-29T11:45:53;99660.28;;;23.50;21.96
55990;BME280;41875;55.806;38.082;2023-05-29T11:48:23;99656.56;;;23.39;22.42
55990;BME280;41875;55.806;38.082;2023-05-29T11:50:52;99651.75;;;23.70;21.48
55990;BME280;41875;55.806;38.082;2023-05-29T11:53:20;99654.69;;;23.98;21.63
55990;BME280;41875;55.806;38.082;2023-05-29T11:55:49;99648.44;;;22.98;22.38
55990;BME280;41875;55.806;38.082;2023-05-29T11:58:18;99651.25;;;22.92;22.76
55990;BME280;41875;55.806;38.082;2023-05-29T12:00:49;99634.75;;;23.58;22.93
55990;BME280;41875;55.806;38.082;2023-05-29T12:03:18;99633.16;;;23.04;22.95
55990;BME280;41875;55.806;38.082;2023-05-29T12:05:49;99649.69;;;23.20;23.61
55990;BME280;41875;55.806;38.082;2023-05-29T12:08:23;99642.06;;;23.05;22.61
55990;BME280;41875;55.806;38.082;2023-05-29T12:10:52;99639.63;;;22.91;22.01
55990;BME280;41875;55.806;38.082;2023-05-29T12:13:22;99629.69;;;23.33;22.35
55990;BME280;41875;55.806;38.082;2023-05-29T12:15:53;99638.00;;;23.72;23.13
55990;BME280;41875;55.806;38.082;2023-05-29T12:18:23;99630.97;;;24.56;22.25
55990;BME280;41875;55.806;38.082;2023-05-29T12:20:57;99629.03;;;24.17;22.11
55990;BME280;41875;55.806;38.082;2023-05-29T12:23:28;99633.50;;;22.96;22.02
55990;BME280;41875;55.806;38.082;2023-05-29T12:25:58;99628.25;;;23.71;21.76
55990;BME280;41875;55.806;38.082;2023-05-29T12:28:27;99634.13;;;23.68;22.61
55990;BME280;41875;55.806;38.082;2023-05-29T12:30:59;99619.25;;;23.53;22.09
55990;BME280;41875;55.806;38.082;2023-05-29T12:33:34;99621.75;;;23.72;22.66
55990;BME280;41875;55.806;38.082;2023-05-29T12:36:34;99606.81;;;24.15;22.06
55990;BME280;41875;55.806;38.082;2023-05-29T12:39:06;99617.03;;;23.50;23.18
55990;BME280;41875;55.806;38.082;2023-05-29T12:41:38;99620.88;;;24.51;21.00
55990;BME280;41875;55.806;38.082;2023-05-29T12:44:07;99605.53;;;24.57;20.99
55990;BME280;41875;55.806;38.082;2023-05-29T12:46:37;99615.84;;;24.04;21.13
55990;BME280;41875;55.806;38.082;2023-05-29T12:49:13;99622.63;;;24.41;21.21
55990;BME280;41875;55.806;38.082;2023-05-29T12:51:45;99618.78;;;24.19;21.53
55990;BME280;41875;55.806;38.082;2023-05-29T12:54:14;99611.22;;;23.87;23.02
55990;BME280;41875;55.806;38.082;2023-05-29T12:56:43;99614.97;;;24.72;20.82
55990;BME280;41875;55.806;38.082;2023-05-29T12:59:13;99604.25;;;24.43;22.10
55990;BME280;41875;55.806;38.082;2023-05-29T13:01:42;99609.91;;;24.07;22.18
55990;BME280;41875;55.806;38.082;2023-05-29T13:04:11;99612.38;;;25.04;20.30
55990;BME280;41875;55.806;38.082;2023-05-29T13:06:40;99611.13;;;24.90;20.97
55990;BME280;41875;55.806;38.082;2023-05-29T13:09:10;99618.88;;;25.03;20.81
55990;BME280;41875;55.806;38.082;2023-05-29T13:11:39;99605.94;;;24.49;21.72
55990;BME280;41875;55.806;38.082;2023-05-29T13:14:07;99608.56;;;24.61;22.10
55990;BME280;41875;55.806;38.082;2023-05-29T13:16:36;99604.13;;;24.55;22.27
55990;BME280;41875;55.806;38.082;2023-05-29T13:19:04;99603.94;;;25.45;21.48